Time;durP1;ratioP1;P1;durP2;ratioP2;P2;SDS_P1;SDS_P2;PMS_P1;PMS_P2;Temp;Humidity;BMP_temperature;BMP_pressure;BME280_temperature;BME280_humidity;BME280_pressure;Samples;Min_cycle;Max_cycle;Signal;HPM_P1;HPM_P2
2024/01/13 00:02:14;;;;;;;165.37;88.60;;;;;;;;;;5051001;28;20021;-85
2024/01/13 00:04:40;;;;;;;158.40;63.93;;;;;;;;;;5049367;28;20228;-85
2024/01/13 00:07:05;;;;;;;119.90;54.03;;;;;;;;;;5049454;28;20017;-85
2024/01/13 00:09:30;;;;;;;137.97;60.33;;;;;;;;;;5049681;28;20089;-86
2024/01/13 00:11:55;;;;;;;135.60;58.50;;;;;;;;;;5049988;28;20024;-85
2024/01/13 00:14:21;;;;;;;145.30;60.70;;;;;;;;;;5049449;28;20025;-85
2024/01/13 00:16:46;;;;;;;167.57;84.37;;;;;;;;;;5050723;28;20028;-86
2024/01/13 00:19:11;;;;;;;143.50;70.40;;;;;;;;;;5050920;28;20047;-85
2024/01/13 00:21:39;;;;;;;126.80;58.93;;;;;;;;;;5051384;28;20108;-85
2024/01/13 00:24:04;;;;;;;123.90;50.90;;;;;;;;;;5050483;28;20032;-85
2024/01/13 00:26:30;;;;;;;136.87;64.00;;;;;;;;;;5050637;28;20017;-85
2024/01/13 00:28:55;;;;;;;128.73;65.27;;;;;;;;;;5048751;28;20387;-85
2024/01/13 00:31:20;;;;;;;129.67;54.90;;;;;;;;;;5050788;28;20479;-85
2024/01/13 00:33:46;;;;;;;106.80;47.37;;;;;;;;;;5051801;28;20082;-85
2024/01/13 00:36:11;;;;;;;91.60;40.97;;;;;;;;;;5048825;28;20052;-85
2024/01/13 00:38:37;;;;;;;148.20;70.23;;;;;;;;;;5050103;28;20465;-85
2024/01/13 00:41:06;;;;;;;141.03;66.33;;;;;;;;;;5049828;28;20075;-86
2024/01/13 00:43:31;;;;;;;151.05;75.45;;;;;;;;;;5049014;28;20044;-85
2024/01/13 00:45:58;;;;;;;136.60;66.10;;;;;;;;;;5048716;28;20021;-85
2024/01/13 00:48:23;;;;;;;105.13;47.20;;;;;;;;;;5049106;28;20024;-85
2024/01/13 00:50:48;;;;;;;76.07;37.37;;;;;;;;;;5048212;28;20017;-85
2024/01/13 00:53:14;;;;;;;109.57;48.80;;;;;;;;;;5049643;28;20112;-85
2024/01/13 00:55:39;;;;;;;91.60;43.23;;;;;;;;;;5048358;28;20482;-85
2024/01/13 00:58:04;;;;;;;95.10;46.37;;;;;;;;;;5049350;28;20024;-85
2024/01/13 01:00:30;;;;;;;106.17;47.97;;;;;;;;;;5049626;28;20016;-86
2024/01/13 01:02:55;;;;;;;115.77;50.10;;;;;;;;;;5037078;28;20510;-86
2024/01/13 01:05:20;;;;;;;114.20;54.33;;;;;;;;;;5048270;28;20029;-85
2024/01/13 01:07:47;;;;;;;112.57;49.83;;;;;;;;;;5049011;28;20025;-85
2024/01/13 01:10:13;;;;;;;89.20;41.03;;;;;;;;;;5045530;28;20076;-85
2024/01/13 01:12:38;;;;;;;96.50;46.67;;;;;;;;;;5047836;28;20407;-86
2024/01/13 01:15:03;;;;;;;96.73;44.93;;;;;;;;;;5049194;28;20029;-85
2024/01/13 01:17:29;;;;;;;98.23;45.87;;;;;;;;;;5049245;28;20048;-85
2024/01/13 01:19:54;;;;;;;100.77;44.23;;;;;;;;;;5049025;28;20029;-85
2024/01/13 01:22:19;;;;;;;82.03;38.73;;;;;;;;;;5049289;28;20021;-85
2024/01/13 01:24:45;;;;;;;96.43;44.67;;;;;;;;;;5047912;28;20025;-86
2024/01/13 01:27:10;;;;;;;92.43;44.27;;;;;;;;;;5047451;28;20094;-86
2024/01/13 01:29:35;;;;;;;91.93;41.07;;;;;;;;;;5047241;28;20129;-85
2024/01/13 01:32:01;;;;;;;85.77;39.10;;;;;;;;;;5049239;28;20025;-85
2024/01/13 01:34:26;;;;;;;95.13;41.47;;;;;;;;;;5047767;28;20032;-85
2024/01/13 01:36:51;;;;;;;98.63;44.13;;;;;;;;;;5048675;28;20445;-86
2024/01/13 01:39:16;;;;;;;105.47;46.43;;;;;;;;;;5048860;28;20020;-86
2024/01/13 01:41:42;;;;;;;102.33;44.30;;;;;;;;;;5048514;28;20418;-86
2024/01/13 01:44:07;;;;;;;192.63;80.57;;;;;;;;;;5048649;28;20017;-85
2024/01/13 01:46:33;;;;;;;209.03;86.13;;;;;;;;;;5051036;28;20036;-86
2024/01/13 01:48:58;;;;;;;296.17;129.63;;;;;;;;;;5047283;28;20073;-85
2024/01/13 01:51:25;;;;;;;202.63;98.10;;;;;;;;;;5047098;28;20071;-85
2024/01/13 01:53:50;;;;;;;112.90;54.27;;;;;;;;;;5047271;28;20051;-86
2024/01/13 01:56:18;;;;;;;104.23;50.87;;;;;;;;;;5047868;28;20246;-85
2024/01/13 01:58:45;;;;;;;99.37;44.17;;;;;;;;;;5039687;28;20023;-86
2024/01/13 02:01:12;;;;;;;102.07;43.60;;;;;;;;;;5049021;28;20483;-86
2024/01/13 02:03:38;;;;;;;95.67;42.27;;;;;;;;;;5048075;28;20495;-86
2024/01/13 02:06:04;;;;;;;88.27;39.70;;;;;;;;;;5047098;28;20025;-86
2024/01/13 02:08:29;;;;;;;94.50;41.97;;;;;;;;;;5045763;28;20520;-86
2024/01/13 02:10:55;;;;;;;84.67;39.33;;;;;;;;;;5046830;28;20020;-86
2024/01/13 02:13:20;;;;;;;101.63;44.23;;;;;;;;;;5047130;28;20021;-86
2024/01/13 02:15:47;;;;;;;101.20;44.43;;;;;;;;;;5048309;28;20032;-86
2024/01/13 02:18:12;;;;;;;96.20;45.40;;;;;;;;;;5046789;28;20403;-86
2024/01/13 02:20:38;;;;;;;84.53;40.43;;;;;;;;;;5046910;28;20025;-86
2024/01/13 02:23:03;;;;;;;101.80;46.10;;;;;;;;;;5047721;28;20039;-86
2024/01/13 02:25:28;;;;;;;84.13;36.33;;;;;;;;;;5048266;28;20025;-86
2024/01/13 02:27:53;;;;;;;84.93;39.97;;;;;;;;;;5046359;28;20441;-85
2024/01/13 02:30:19;;;;;;;70.97;32.87;;;;;;;;;;5046697;28;20021;-86
2024/01/13 02:32:44;;;;;;;42.37;18.63;;;;;;;;;;5048523;28;20115;-86
2024/01/13 02:35:10;;;;;;;71.83;32.47;;;;;;;;;;5049634;28;20017;-86
2024/01/13 02:37:35;;;;;;;65.23;34.17;;;;;;;;;;5048615;28;20480;-86
2024/01/13 02:40:00;;;;;;;79.13;37.47;;;;;;;;;;5048812;28;20029;-86
2024/01/13 02:42:26;;;;;;;108.83;49.07;;;;;;;;;;5046954;28;20239;-85
2024/01/13 02:44:51;;;;;;;117.57;55.43;;;;;;;;;;5047705;28;20067;-85
2024/01/13 02:47:17;;;;;;;98.47;44.07;;;;;;;;;;5046221;28;20033;-86
2024/01/13 02:49:42;;;;;;;75.63;35.50;;;;;;;;;;5057709;28;20423;-85
2024/01/13 02:52:07;;;;;;;87.17;40.13;;;;;;;;;;5047688;28;20372;-86
2024/01/13 02:54:32;;;;;;;111.80;48.90;;;;;;;;;;5046584;28;20031;-86
2024/01/13 02:56:59;;;;;;;88.33;40.57;;;;;;;;;;5042828;28;20037;-85
2024/01/13 02:59:24;;;;;;;54.97;25.57;;;;;;;;;;5046402;28;20351;-84
2024/01/13 03:01:50;;;;;;;103.83;47.87;;;;;;;;;;5047230;28;20052;-86
2024/01/13 03:04:15;;;;;;;92.97;43.90;;;;;;;;;;5047571;28;20399;-85
2024/01/13 03:06:42;;;;;;;74.67;34.50;;;;;;;;;;5030525;28;20021;-85
2024/01/13 03:09:07;;;;;;;97.13;43.97;;;;;;;;;;5049377;28;20086;-85
2024/01/13 03:11:32;;;;;;;88.80;42.17;;;;;;;;;;5047670;28;20475;-85
2024/01/13 03:13:58;;;;;;;60.40;27.83;;;;;;;;;;5045812;28;20025;-85
2024/01/13 03:16:23;;;;;;;95.43;46.47;;;;;;;;;;5046413;28;20362;-85
2024/01/13 03:18:49;;;;;;;83.87;39.07;;;;;;;;;;5045706;28;20037;-85
2024/01/13 03:21:14;;;;;;;89.40;38.63;;;;;;;;;;5045641;28;20292;-85
2024/01/13 03:23:40;;;;;;;81.57;37.77;;;;;;;;;;5046954;28;20025;-85
2024/01/13 03:26:05;;;;;;;88.60;42.17;;;;;;;;;;5045859;28;20025;-86
2024/01/13 03:28:30;;;;;;;69.00;33.13;;;;;;;;;;5047236;28;20498;-85
2024/01/13 03:30:55;;;;;;;93.70;42.07;;;;;;;;;;5047630;28;20021;-86
2024/01/13 03:33:21;;;;;;;106.57;48.30;;;;;;;;;;5047102;28;20362;-85
2024/01/13 03:35:46;;;;;;;91.70;42.87;;;;;;;;;;5046883;28;20040;-85
2024/01/13 03:38:11;;;;;;;160.53;71.43;;;;;;;;;;5046553;28;20104;-85
2024/01/13 03:40:37;;;;;;;144.17;59.07;;;;;;;;;;5045409;28;20475;-85
2024/01/13 03:43:02;;;;;;;95.67;45.67;;;;;;;;;;5045351;28;20029;-84
2024/01/13 03:45:27;;;;;;;147.17;62.10;;;;;;;;;;5045883;28;20020;-85
2024/01/13 03:47:53;;;;;;;90.70;41.93;;;;;;;;;;5045177;28;20021;-85
2024/01/13 03:50:18;;;;;;;81.00;38.20;;;;;;;;;;5045619;28;20028;-85
2024/01/13 03:52:44;;;;;;;102.07;52.23;;;;;;;;;;5046056;28;20398;-85
2024/01/13 03:55:09;;;;;;;81.33;41.83;;;;;;;;;;5045071;28;20514;-85
2024/01/13 03:57:34;;;;;;;78.03;39.90;;;;;;;;;;5045728;28;20027;-85
2024/01/13 04:00:00;;;;;;;97.70;49.50;;;;;;;;;;5047476;28;20104;-85
2024/01/13 04:02:27;;;;;;;100.87;48.43;;;;;;;;;;5045990;28;20024;-85
2024/01/13 04:04:54;;;;;;;93.33;42.97;;;;;;;;;;5047060;28;20013;-85
2024/01/13 04:07:19;;;;;;;98.20;47.23;;;;;;;;;;5045945;28;20013;-85
2024/01/13 04:09:44;;;;;;;70.63;37.13;;;;;;;;;;5045810;28;20024;-84
2024/01/13 04:12:10;;;;;;;70.27;36.90;;;;;;;;;;5047236;28;20017;-85
2024/01/13 04:14:35;;;;;;;73.43;38.37;;;;;;;;;;5046181;28;20337;-85
2024/01/13 04:17:00;;;;;;;129.70;62.20;;;;;;;;;;5046800;28;20189;-85
2024/01/13 04:19:26;;;;;;;67.03;33.13;;;;;;;;;;5046259;28;20036;-85
2024/01/13 04:21:51;;;;;;;125.60;60.77;;;;;;;;;;5047297;28;20371;-85
2024/01/13 04:24:16;;;;;;;183.77;89.10;;;;;;;;;;5045330;28;20411;-84
2024/01/13 04:26:43;;;;;;;91.90;40.90;;;;;;;;;;5051714;28;20021;-85
2024/01/13 04:29:08;;;;;;;73.80;39.17;;;;;;;;;;5050188;28;20032;-84
2024/01/13 04:31:34;;;;;;;67.70;30.43;;;;;;;;;;5052548;28;20021;-85
2024/01/13 04:33:59;;;;;;;78.53;39.07;;;;;;;;;;5051715;28;20013;-86
2024/01/13 04:36:25;;;;;;;62.40;32.17;;;;;;;;;;5057672;28;20494;-85
2024/01/13 04:38:50;;;;;;;63.90;32.80;;;;;;;;;;5054179;28;20017;-84
2024/01/13 04:41:16;;;;;;;60.17;31.93;;;;;;;;;;5057686;28;20095;-84
2024/01/13 04:43:41;;;;;;;63.87;32.33;;;;;;;;;;5057095;28;20025;-84
2024/01/13 04:46:07;;;;;;;66.57;30.73;;;;;;;;;;5059545;28;20554;-84
2024/01/13 04:48:33;;;;;;;71.17;36.17;;;;;;;;;;5055890;28;20052;-85
2024/01/13 04:50:58;;;;;;;82.80;42.73;;;;;;;;;;5058660;28;20029;-84
2024/01/13 04:53:24;;;;;;;61.57;31.57;;;;;;;;;;5058766;28;20029;-85
2024/01/13 04:55:49;;;;;;;66.43;31.57;;;;;;;;;;5055692;28;20025;-85
2024/01/13 04:58:15;;;;;;;74.67;36.10;;;;;;;;;;5057638;28;20025;-85
2024/01/13 05:00:41;;;;;;;119.67;54.87;;;;;;;;;;5051140;28;20047;-85
2024/01/13 05:03:06;;;;;;;116.90;56.23;;;;;;;;;;5050166;28;20498;-85
2024/01/13 05:05:31;;;;;;;126.63;56.23;;;;;;;;;;5049723;28;20025;-85
2024/01/13 05:07:57;;;;;;;187.63;80.73;;;;;;;;;;5038623;28;20021;-85
2024/01/13 05:10:22;;;;;;;160.10;70.50;;;;;;;;;;5050785;28;20014;-85
2024/01/13 05:12:49;;;;;;;224.67;99.23;;;;;;;;;;5048205;28;20063;-84
2024/01/13 05:15:14;;;;;;;189.97;66.40;;;;;;;;;;5048462;28;20021;-85
2024/01/13 05:17:40;;;;;;;540.13;229.67;;;;;;;;;;5049705;28;20410;-84
2024/01/13 05:20:06;;;;;;;168.90;80.00;;;;;;;;;;5048084;28;20036;-85
2024/01/13 05:22:31;;;;;;;176.40;105.73;;;;;;;;;;5049793;28;20145;-85
2024/01/13 05:24:57;;;;;;;122.03;57.67;;;;;;;;;;5047970;28;20025;-85
2024/01/13 05:27:22;;;;;;;121.87;72.17;;;;;;;;;;5047722;28;20516;-85
2024/01/13 05:29:47;;;;;;;83.50;39.33;;;;;;;;;;5047067;28;20024;-85
2024/01/13 05:32:12;;;;;;;166.00;102.73;;;;;;;;;;5048794;28;20025;-85
2024/01/13 05:34:39;;;;;;;176.17;109.47;;;;;;;;;;5049608;28;20032;-85
2024/01/13 05:37:05;;;;;;;114.60;59.57;;;;;;;;;;5045488;28;20025;-85
2024/01/13 05:39:30;;;;;;;126.00;66.47;;;;;;;;;;5046624;28;20059;-85
2024/01/13 05:41:56;;;;;;;104.43;52.30;;;;;;;;;;5045784;28;20226;-84
2024/01/13 05:44:21;;;;;;;109.80;54.70;;;;;;;;;;5048338;28;20398;-85
2024/01/13 05:46:46;;;;;;;112.80;56.40;;;;;;;;;;5047093;28;20020;-85
2024/01/13 05:49:11;;;;;;;109.17;52.20;;;;;;;;;;5048533;28;20021;-85
2024/01/13 05:51:37;;;;;;;89.37;41.40;;;;;;;;;;5048745;28;20017;-85
2024/01/13 05:54:02;;;;;;;99.87;50.57;;;;;;;;;;5047515;28;20043;-85
2024/01/13 05:56:28;;;;;;;90.70;45.17;;;;;;;;;;5047231;28;20039;-85
2024/01/13 05:58:54;;;;;;;109.77;56.00;;;;;;;;;;5047562;28;20103;-84
2024/01/13 06:01:19;;;;;;;92.93;46.80;;;;;;;;;;5048037;28;20543;-85
2024/01/13 06:03:45;;;;;;;104.17;48.37;;;;;;;;;;5048399;28;20108;-85
2024/01/13 06:06:10;;;;;;;108.47;50.80;;;;;;;;;;5046826;28;20031;-84
2024/01/13 06:08:36;;;;;;;112.00;54.60;;;;;;;;;;5048036;28;20023;-83
2024/01/13 06:11:01;;;;;;;139.43;62.40;;;;;;;;;;5048802;28;20031;-85
2024/01/13 06:13:26;;;;;;;368.40;139.87;;;;;;;;;;5046823;28;20036;-83
2024/01/13 06:15:53;;;;;;;195.73;85.53;;;;;;;;;;5049028;28;20021;-85
2024/01/13 06:18:18;;;;;;;178.27;77.93;;;;;;;;;;5047013;28;20435;-85
2024/01/13 06:20:43;;;;;;;255.73;102.10;;;;;;;;;;5047531;28;20494;-85
2024/01/13 06:23:09;;;;;;;277.00;106.43;;;;;;;;;;5048107;28;20021;-85
2024/01/13 06:25:34;;;;;;;176.50;77.27;;;;;;;;;;5046635;28;20048;-85
2024/01/13 06:27:59;;;;;;;239.40;97.07;;;;;;;;;;5048113;28;20368;-84
2024/01/13 06:30:24;;;;;;;268.27;114.17;;;;;;;;;;5048069;28;20024;-84
2024/01/13 06:32:50;;;;;;;230.13;94.77;;;;;;;;;;5048569;28;20121;-85
2024/01/13 06:35:15;;;;;;;182.57;83.23;;;;;;;;;;5046907;28;20021;-84
2024/01/13 06:37:42;;;;;;;187.93;88.23;;;;;;;;;;5046805;28;20395;-84
2024/01/13 06:40:08;;;;;;;147.77;72.10;;;;;;;;;;5046529;28;20108;-84
2024/01/13 06:42:34;;;;;;;141.97;71.10;;;;;;;;;;5046478;28;20029;-85
2024/01/13 06:44:59;;;;;;;116.60;57.43;;;;;;;;;;5045592;28;20498;-85
2024/01/13 06:47:24;;;;;;;169.90;86.13;;;;;;;;;;5047591;28;20472;-85
2024/01/13 06:49:50;;;;;;;123.97;63.60;;;;;;;;;;5048354;28;20096;-85
2024/01/13 06:52:15;;;;;;;167.40;83.30;;;;;;;;;;5047219;28;20027;-84
2024/01/13 06:54:41;;;;;;;178.77;88.53;;;;;;;;;;5044904;28;20020;-84
2024/01/13 06:57:06;;;;;;;141.10;69.77;;;;;;;;;;5047271;28;20021;-85
2024/01/13 06:59:31;;;;;;;173.80;89.60;;;;;;;;;;5045948;28;20472;-84
2024/01/13 07:01:57;;;;;;;130.30;66.53;;;;;;;;;;5026090;28;20044;-84
2024/01/13 07:04:22;;;;;;;145.53;82.50;;;;;;;;;;5043081;28;20065;-84
2024/01/13 07:06:47;;;;;;;166.82;86.82;;;;;;;;;;5045082;28;20015;-84
2024/01/13 07:09:16;;;;;;;163.23;88.90;;;;;;;;;;5048000;28;20017;-84
2024/01/13 07:11:41;;;;;;;111.90;54.10;;;;;;;;;;5045776;28;20116;-84
2024/01/13 07:14:07;;;;;;;124.57;60.27;;;;;;;;;;5042006;28;20125;-84
2024/01/13 07:16:32;;;;;;;139.77;71.10;;;;;;;;;;5045165;28;20493;-84
2024/01/13 07:18:57;;;;;;;682.03;369.47;;;;;;;;;;5044550;28;20068;-84
2024/01/13 07:21:23;;;;;;;200.32;93.95;;;;;;;;;;5045994;28;20536;-84
2024/01/13 07:23:48;;;;;;;230.00;105.78;;;;;;;;;;5041410;28;20044;-84
2024/01/13 07:26:14;;;;;;;181.80;89.23;;;;;;;;;;5043763;28;20009;-83
2024/01/13 07:28:40;;;;;;;148.70;67.80;;;;;;;;;;5045698;28;20021;-83
2024/01/13 07:31:06;;;;;;;177.55;93.88;;;;;;;;;;5045796;28;20013;-84
2024/01/13 07:33:31;;;;;;;365.27;159.70;;;;;;;;;;5044836;28;20054;-84
2024/01/13 07:35:56;;;;;;;377.92;147.25;;;;;;;;;;5046456;28;20406;-84
2024/01/13 07:38:22;;;;;;;431.00;190.23;;;;;;;;;;5043734;28;20032;-84
2024/01/13 07:40:47;;;;;;;381.67;186.65;;;;;;;;;;5044811;28;20041;-84
2024/01/13 07:43:12;;;;;;;396.30;199.73;;;;;;;;;;5046873;28;20021;-84
2024/01/13 07:45:38;;;;;;;320.02;163.73;;;;;;;;;;5064736;28;20017;-85
2024/01/13 07:48:03;;;;;;;229.07;129.00;;;;;;;;;;5045240;28;20036;-85
2024/01/13 07:50:28;;;;;;;149.50;81.30;;;;;;;;;;5043270;28;20395;-84
2024/01/13 07:52:54;;;;;;;187.32;96.20;;;;;;;;;;5044694;28;20466;-85
2024/01/13 07:55:19;;;;;;;279.35;131.30;;;;;;;;;;5035176;28;20022;-85
2024/01/13 07:57:44;;;;;;;212.35;109.25;;;;;;;;;;5033665;28;20072;-85
2024/01/13 08:00:12;;;;;;;233.65;129.93;;;;;;;;;;5047443;28;20383;-85
2024/01/13 08:02:37;;;;;;;218.85;126.72;;;;;;;;;;5046419;28;20021;-84
2024/01/13 08:05:02;;;;;;;195.77;96.97;;;;;;;;;;5044568;28;20028;-84
2024/01/13 08:07:28;;;;;;;175.55;97.35;;;;;;;;;;5044895;28;20031;-86
2024/01/13 08:09:53;;;;;;;128.00;64.05;;;;;;;;;;5052397;28;20494;-86
2024/01/13 08:12:22;;;;;;;127.57;63.88;;;;;;;;;;5051791;28;20017;-85
2024/01/13 08:14:47;;;;;;;176.43;98.40;;;;;;;;;;5046515;28;20179;-86
2024/01/13 08:17:12;;;;;;;220.88;125.68;;;;;;;;;;5051744;28;20123;-85
2024/01/13 08:19:38;;;;;;;178.27;92.55;;;;;;;;;;5054526;28;20031;-85
2024/01/13 08:22:03;;;;;;;202.88;105.78;;;;;;;;;;5058656;28;20485;-85
2024/01/13 08:24:30;;;;;;;199.65;111.60;;;;;;;;;;5066413;28;20040;-85
2024/01/13 08:26:56;;;;;;;133.23;69.20;;;;;;;;;;5064355;28;20013;-85
2024/01/13 08:29:21;;;;;;;145.88;82.40;;;;;;;;;;5049901;28;20035;-85
2024/01/13 08:31:49;;;;;;;164.23;86.13;;;;;;;;;;5049459;28;20599;-85
2024/01/13 08:34:14;;;;;;;179.93;90.90;;;;;;;;;;5050250;28;20020;-85
2024/01/13 08:36:40;;;;;;;146.60;79.03;;;;;;;;;;5051013;28;20025;-85
2024/01/13 08:39:06;;;;;;;225.68;120.80;;;;;;;;;;5050195;28;20071;-84
2024/01/13 08:41:32;;;;;;;195.20;106.13;;;;;;;;;;5049769;28;20513;-84
2024/01/13 08:43:57;;;;;;;135.85;72.28;;;;;;;;;;5050245;28;20505;-85
2024/01/13 08:46:22;;;;;;;120.95;65.60;;;;;;;;;;5051648;28;20017;-85
2024/01/13 08:48:48;;;;;;;198.15;105.53;;;;;;;;;;5051715;28;20020;-84
2024/01/13 08:51:13;;;;;;;113.00;62.50;;;;;;;;;;5050375;28;20079;-86
2024/01/13 08:53:38;;;;;;;125.00;72.38;;;;;;;;;;5051064;28;20017;-84
2024/01/13 08:56:04;;;;;;;126.55;72.93;;;;;;;;;;5043696;28;20032;-84
2024/01/13 08:58:30;;;;;;;105.85;59.75;;;;;;;;;;5032387;28;20056;-85
2024/01/13 09:00:56;;;;;;;83.75;49.33;;;;;;;;;;5050734;28;20493;-84
2024/01/13 09:03:21;;;;;;;111.22;64.57;;;;;;;;;;5052403;28;20017;-85
2024/01/13 09:05:47;;;;;;;84.10;48.72;;;;;;;;;;5058021;28;20563;-85
2024/01/13 09:08:12;;;;;;;172.07;94.22;;;;;;;;;;5059647;28;20025;-85
2024/01/13 09:10:39;;;;;;;140.77;68.43;;;;;;;;;;5070677;28;20474;-85
2024/01/13 09:13:04;;;;;;;154.98;70.07;;;;;;;;;;5055716;28;20078;-84
2024/01/13 09:15:30;;;;;;;240.98;116.13;;;;;;;;;;5049055;28;20123;-84
2024/01/13 09:17:57;;;;;;;161.98;89.38;;;;;;;;;;5047403;28;20072;-86
2024/01/13 09:20:23;;;;;;;89.18;50.95;;;;;;;;;;5050884;28;20033;-85
2024/01/13 09:22:48;;;;;;;170.63;87.85;;;;;;;;;;5049966;28;20083;-85
2024/01/13 09:25:13;;;;;;;167.98;90.13;;;;;;;;;;5050471;28;20021;-86
2024/01/13 09:27:38;;;;;;;74.07;43.85;;;;;;;;;;5053740;28;20016;-86
2024/01/13 09:30:05;;;;;;;60.35;29.58;;;;;;;;;;5055498;28;20032;-85
2024/01/13 09:32:30;;;;;;;76.05;42.58;;;;;;;;;;5054962;28;20352;-86
2024/01/13 09:34:56;;;;;;;71.57;40.67;;;;;;;;;;5052868;28;20218;-86
2024/01/13 09:37:22;;;;;;;71.22;42.83;;;;;;;;;;5054185;28;20021;-86
2024/01/13 09:39:48;;;;;;;56.22;32.60;;;;;;;;;;5052368;28;20330;-84
2024/01/13 09:42:18;;;;;;;56.15;33.35;;;;;;;;;;5051988;28;20067;-85
2024/01/13 09:44:43;;;;;;;;;;;;;;;;;;5055005;28;20028;-87
2024/01/13 09:47:08;;;;;;;56.67;32.28;;;;;;;;;;5054356;28;19905;-85
2024/01/13 09:49:34;;;;;;;603.08;158.27;;;;;;;;;;5057240;28;20043;-86
2024/01/13 09:52:00;;;;;;;77.47;42.85;;;;;;;;;;5054552;28;20021;-86
2024/01/13 09:54:26;;;;;;;113.10;50.50;;;;;;;;;;5070297;28;20045;-86
2024/01/13 09:56:53;;;;;;;179.65;64.38;;;;;;;;;;5058741;28;20573;-86
2024/01/13 09:59:22;;;;;;;104.80;56.00;;;;;;;;;;5050608;28;20036;-85
2024/01/13 10:01:47;;;;;;;150.15;70.53;;;;;;;;;;5050179;28;20518;-86
2024/01/13 10:04:13;;;;;;;75.72;41.08;;;;;;;;;;5047909;28;20032;-87
2024/01/13 10:06:40;;;;;;;154.23;66.35;;;;;;;;;;5047633;28;20021;-86
2024/01/13 10:09:06;;;;;;;77.00;39.08;;;;;;;;;;5049652;28;20380;-86
2024/01/13 10:11:31;;;;;;;95.40;55.58;;;;;;;;;;5046913;28;20021;-85
2024/01/13 10:14:03;;;;;;;96.78;50.75;;;;;;;;;;5047388;28;20458;-86
2024/01/13 10:16:29;;;;;;;533.47;183.43;;;;;;;;;;5046429;28;20029;-85
2024/01/13 10:19:01;;;;;;;155.25;77.78;;;;;;;;;;5047961;28;20061;-85
2024/01/13 10:21:27;;;;;;;345.67;142.23;;;;;;;;;;5048886;28;20033;-86
2024/01/13 10:23:55;;;;;;;120.05;53.10;;;;;;;;;;5051204;28;20053;-85
2024/01/13 10:26:21;;;;;;;147.57;49.22;;;;;;;;;;5048291;28;20025;-86
2024/01/13 10:28:46;;;;;;;121.32;37.38;;;;;;;;;;5046203;28;20023;-86
2024/01/13 10:31:12;;;;;;;76.25;27.15;;;;;;;;;;5047637;28;20029;-86
2024/01/13 10:33:39;;;;;;;88.63;30.27;;;;;;;;;;5052218;28;20036;-87
2024/01/13 10:36:05;;;;;;;47.03;19.63;;;;;;;;;;5052168;28;20627;-86
2024/01/13 10:38:30;;;;;;;51.80;21.50;;;;;;;;;;5060573;28;20021;-86
2024/01/13 10:40:57;;;;;;;40.58;18.63;;;;;;;;;;5055876;28;20025;-87
2024/01/13 10:43:23;;;;;;;29.67;14.57;;;;;;;;;;5048612;28;20349;-86
2024/01/13 10:45:52;;;;;;;22.77;14.65;;;;;;;;;;5048178;28;20094;-85
2024/01/13 10:48:30;;;;;;;47.25;23.30;;;;;;;;;;5046137;28;20497;-87
2024/01/13 10:50:57;;;;;;;29.63;15.77;;;;;;;;;;5046920;28;20021;-87
2024/01/13 10:53:28;;;;;;;36.28;16.48;;;;;;;;;;5047134;28;20430;-87
2024/01/13 10:55:54;;;;;;;25.33;15.35;;;;;;;;;;5042574;28;20329;-87
2024/01/13 10:58:20;;;;;;;23.70;15.82;;;;;;;;;;5033242;28;20020;-87
2024/01/13 11:00:46;;;;;;;26.38;14.77;;;;;;;;;;5046882;28;20035;-87
2024/01/13 11:03:13;;;;;;;27.23;15.75;;;;;;;;;;5046823;28;20047;-87
2024/01/13 11:05:39;;;;;;;25.17;16.25;;;;;;;;;;5048274;28;20040;-87
2024/01/13 11:08:04;;;;;;;63.03;36.45;;;;;;;;;;5048837;28;20032;-85
2024/01/13 11:10:32;;;;;;;32.30;19.60;;;;;;;;;;5050179;28;20426;-85
2024/01/13 11:13:12;;;;;;;23.73;14.77;;;;;;;;;;5046612;28;20273;-87
2024/01/13 11:15:39;;;;;;;25.88;14.00;;;;;;;;;;5046742;28;20021;-87
2024/01/13 11:18:05;;;;;;;24.90;13.63;;;;;;;;;;5043748;28;20191;-87
2024/01/13 11:20:51;;;;;;;25.55;15.25;;;;;;;;;;5041522;28;20518;-87
2024/01/13 11:23:17;;;;;;;32.30;20.65;;;;;;;;;;5052479;28;20040;-87
2024/01/13 11:25:44;;;;;;;27.10;15.75;;;;;;;;;;5046311;28;20107;-87
2024/01/13 11:28:12;;;;;;;54.30;28.15;;;;;;;;;;5022978;28;20103;-85
2024/01/13 11:30:38;;;;;;;28.77;16.73;;;;;;;;;;5041352;28;20048;-85
2024/01/13 11:33:11;;;;;;;26.15;15.95;;;;;;;;;;5042632;28;20452;-86
2024/01/13 11:35:42;;;;;;;28.88;16.55;;;;;;;;;;5042874;28;20025;-83
2024/01/13 11:38:12;;;;;;;30.10;15.63;;;;;;;;;;5044151;28;20021;-84
2024/01/13 11:40:43;;;;;;;24.63;14.13;;;;;;;;;;5045596;28;20074;-88
2024/01/13 11:43:18;;;;;;;27.15;15.43;;;;;;;;;;5046708;28;20036;-86
2024/01/13 11:45:47;;;;;;;26.10;17.02;;;;;;;;;;5047925;28;20021;-87
2024/01/13 11:48:13;;;;;;;;;;;;;;;;;;5046602;28;20495;-87
2024/01/13 11:50:38;;;;;;;26.54;15.72;;;;;;;;;;5046306;28;19916;-86
2024/01/13 11:53:23;;;;;;;60.90;35.13;;;;;;;;;;5048223;28;20453;-86
2024/01/13 11:55:48;;;;;;;29.83;18.73;;;;;;;;;;5048383;28;20013;-86
2024/01/13 11:58:14;;;;;;;22.80;14.25;;;;;;;;;;5048842;28;20125;-85
2024/01/13 12:00:43;;;;;;;21.30;12.93;;;;;;;;;;5038792;28;20021;-84
2024/01/13 12:03:08;;;;;;;19.17;12.32;;;;;;;;;;5048059;28;20041;-85
2024/01/13 12:05:33;;;;;;;29.55;14.77;;;;;;;;;;5056924;28;20825;-84
2024/01/13 12:07:59;;;;;;;18.30;11.63;;;;;;;;;;5054395;28;20017;-84
2024/01/13 12:10:24;;;;;;;20.02;12.43;;;;;;;;;;5045730;28;20020;-85
2024/01/13 12:12:49;;;;;;;17.90;11.40;;;;;;;;;;5052289;28;20020;-87
2024/01/13 12:15:19;;;;;;;15.75;10.55;;;;;;;;;;5059468;28;20020;-87
2024/01/13 12:17:45;;;;;;;27.52;15.27;;;;;;;;;;5039095;28;20567;-87
2024/01/13 12:20:11;;;;;;;27.63;16.45;;;;;;;;;;5057180;28;20063;-87
2024/01/13 12:22:36;;;;;;;21.75;15.82;;;;;;;;;;5054577;28;20021;-88
2024/01/13 12:25:01;;;;;;;21.73;14.13;;;;;;;;;;5058784;28;20556;-87
2024/01/13 12:27:27;;;;;;;24.95;16.02;;;;;;;;;;5058297;28;20021;-89
2024/01/13 12:29:58;;;;;;;34.38;21.73;;;;;;;;;;5062891;28;20070;-87
2024/01/13 12:32:25;;;;;;;44.40;20.77;;;;;;;;;;5060238;28;20028;-88
2024/01/13 12:34:50;;;;;;;17.98;11.73;;;;;;;;;;5056990;28;20474;-86
2024/01/13 12:37:15;;;;;;;27.48;18.02;;;;;;;;;;5061701;28;20051;-86
2024/01/13 12:39:41;;;;;;;32.58;19.52;;;;;;;;;;5063771;28;20020;-88
2024/01/13 12:42:07;;;;;;;24.08;13.75;;;;;;;;;;5058560;28;20021;-87
2024/01/13 12:44:33;;;;;;;15.55;10.75;;;;;;;;;;5055140;28;20025;-87
2024/01/13 12:46:59;;;;;;;27.73;17.42;;;;;;;;;;5059196;28;20021;-87
2024/01/13 12:49:24;;;;;;;23.67;12.52;;;;;;;;;;5059518;28;20232;-87
2024/01/13 12:51:54;;;;;;;20.65;12.10;;;;;;;;;;5057998;28;20021;-86
2024/01/13 12:54:20;;;;;;;20.73;13.32;;;;;;;;;;5055949;28;20151;-88
2024/01/13 13:17:39;;;;;;;21.67;14.60;;;;;;;;;;5079497;28;20547;-85
2024/01/13 13:20:07;;;;;;;20.25;13.45;;;;;;;;;;5044550;28;20107;-87
2024/01/13 13:22:37;;;;;;;19.10;12.10;;;;;;;;;;5058868;28;20036;-88
2024/01/13 13:25:04;;;;;;;21.25;13.40;;;;;;;;;;5042521;28;20115;-86
2024/01/13 13:27:29;;;;;;;23.90;13.80;;;;;;;;;;5069898;28;20079;-87
2024/01/13 13:29:54;;;;;;;19.67;12.70;;;;;;;;;;5062311;28;20620;-87
2024/01/13 13:32:19;;;;;;;19.40;13.40;;;;;;;;;;5066604;28;20487;-88
2024/01/13 13:34:45;;;;;;;19.20;12.68;;;;;;;;;;5065644;28;20020;-85
2024/01/13 13:37:10;;;;;;;20.13;12.23;;;;;;;;;;5071967;28;20063;-86
2024/01/13 13:39:37;;;;;;;18.88;12.45;;;;;;;;;;5064843;28;20047;-85
2024/01/13 13:42:03;;;;;;;15.23;9.90;;;;;;;;;;5067806;28;20034;-86
2024/01/13 13:44:30;;;;;;;17.48;11.38;;;;;;;;;;5061725;28;20025;-85
2024/01/13 13:46:56;;;;;;;17.13;11.57;;;;;;;;;;5066633;28;20073;-88
2024/01/13 13:49:21;;;;;;;29.88;18.25;;;;;;;;;;5048798;28;20080;-88
2024/01/13 13:51:51;;;;;;;26.52;18.00;;;;;;;;;;5058622;28;20008;-88
2024/01/13 13:54:16;;;;;;;29.95;16.33;;;;;;;;;;5046424;28;20033;-87
2024/01/13 13:56:41;;;;;;;26.88;18.88;;;;;;;;;;5058071;28;20020;-87
2024/01/13 13:59:07;;;;;;;33.15;25.13;;;;;;;;;;5069236;28;20016;-88
2024/01/13 14:01:32;;;;;;;35.95;25.98;;;;;;;;;;5070707;28;20096;-86
2024/01/13 14:03:58;;;;;;;36.13;22.08;;;;;;;;;;5060905;28;20032;-88
2024/01/13 14:06:23;;;;;;;21.73;13.27;;;;;;;;;;5066404;28;20035;-86
2024/01/13 14:08:48;;;;;;;24.33;15.85;;;;;;;;;;5080741;28;20446;-87
2024/01/13 14:11:14;;;;;;;24.60;15.20;;;;;;;;;;5072088;28;20119;-87
2024/01/13 14:13:40;;;;;;;18.17;11.23;;;;;;;;;;5045912;28;20064;-87
2024/01/13 14:16:05;;;;;;;26.30;19.90;;;;;;;;;;5054813;28;20039;-86
2024/01/13 14:18:33;;;;;;;25.25;18.95;;;;;;;;;;5036698;28;20019;-87
2024/01/13 14:20:58;;;;;;;35.42;30.00;;;;;;;;;;5061446;28;20025;-85
2024/01/13 14:23:24;;;;;;;55.67;38.22;;;;;;;;;;5042372;28;20025;-86
2024/01/13 14:25:49;;;;;;;33.80;22.42;;;;;;;;;;5042386;28;20017;-87